Flight Track Log - Related Links

Times and Time Zones

All times are in EDT time to prevent confusion due to time zone crossing. See the UPS1121 flight status page for this flight to view local times or setup timezone preferences in your user account.

Time Position Orientation Groundspeed Altitude Reporting Facility
EDT Latitude Longitude Course Direction KTS MPH feet Rate Location/Type
Thu 09:59:18 PM 41.9417 -72.6997 32° Northeast 116 133 1,100  Level Boston Center
Thu 10:00:39 PM 41.9750 -72.6719 32° Northeast 90 104 2,900 2,255 Climbing Boston Center
Thu 10:01:39 PM 41.9022 -72.6353 159° South 136 157 6,400 3,500 Climbing Boston Center
Thu 10:02:39 PM 41.8375 -72.5961 156° South 220 253 9,900 2,850 Climbing Boston Center
Thu 10:03:39 PM 41.7522 -72.5347 152° Southeast 299 344 12,100 2,450 Climbing Boston Center
Thu 10:04:39 PM 41.6647 -72.5317 179° South 335 386 14,800 2,850 Climbing Boston Center
Thu 10:05:39 PM 41.5542 -72.5706 195° South 365 420 17,800 2,500 Climbing Boston Center
Thu 10:06:39 PM 41.4644 -72.6008 194° South 370 426 19,800 1,100 Climbing Boston Center
Thu 10:07:39 PM 41.3622 -72.6392 196° South 380 437 20,000 100 Climbing Boston Center
Thu 10:08:39 PM 41.2478 -72.6831 196° South 380 437 20,000  Level Boston Center
Thu 10:09:39 PM 41.1433 -72.7211 195° South 380 437 20,000  Level Boston Center
Thu 10:10:51 PM 41.0411 -72.7594 196° South 380 437 20,000  Level Boston Center
Thu 10:11:51 PM 40.9222 -72.8219 202° Southwest 380 437 20,000  Level Boston Center
Thu 10:12:51 PM 40.8303 -72.8900 209° Southwest 380 437 20,000  Level Boston Center
Thu 10:14:42 PM 40.6636 -73.0092 208° Southwest 385 443 20,000  Level New York Center
Thu 10:15:43 PM 40.5728 -73.0744 209° Southwest 380 437 20,000  Level New York Center
Thu 10:16:43 PM 40.4817 -73.1422 210° Southwest 385 443 20,000  Level New York Center
Thu 10:17:43 PM 40.3867 -73.2069 207° Southwest 385 443 20,000  Level New York Center
Thu 10:18:41 PM 40.2956 -73.2719 209° Southwest 380 437 20,000  Level New York Center
Thu 10:19:42 PM 40.2067 -73.3392 210° Southwest 380 437 20,000  Level New York Center
Thu 10:20:42 PM 40.1158 -73.3983 206° Southwest 380 437 20,000  Level New York Center
Thu 10:21:41 PM 40.0247 -73.4600 207° Southwest 380 437 20,000  Level New York Center
Thu 10:23:34 PM 39.8678 -73.5939 213° Southwest 379 436 20,000  Level Washington Center
Thu 10:24:35 PM 39.8047 -73.6981 232° Southwest 370 426 20,000  Level Washington Center
Thu 10:25:35 PM 39.7397 -73.7969 229° Southwest 370 426 20,000 -202 Level Washington Center
Thu 10:26:34 PM 39.6786 -73.8956 231° Southwest 370 426 19,600 -1,350 Descending Washington Center
Thu 10:27:35 PM 39.6236 -73.9858 232° Southwest 348 400 17,300 -2,016 Descending Washington Center
Thu 10:28:36 PM 39.5664 -74.0706 229° Southwest 330 380 15,500 -1,664 Descending Washington Center
Thu 10:29:34 PM 39.5258 -74.1631 240° Southwest 318 366 14,000 -756 Descending Washington Center
Thu 10:30:35 PM 39.5272 -74.2867 271° West 306 352 14,000 -1,141 Level Washington Center
Thu 10:32:59 PM 39.5333 -74.5833 272° West 317 365 10,100 -1,412 Descending Philadelphia TRACON
Thu 10:33:59 PM 39.5333 -74.6833 270° West 255 293 9,200 -550 Descending Philadelphia TRACON
Thu 10:34:59 PM 39.5333 -74.7667 270° West 259 298 9,000 -100 Descending Philadelphia TRACON
Thu 10:35:59 PM 39.5500 -74.8667 282° West 272 313 9,000 -150 Level Philadelphia TRACON
Thu 10:36:59 PM 39.6167 -74.9000 339° North 286 329 8,700 -800 Descending Philadelphia TRACON
Thu 10:37:59 PM 39.7000 -74.9167 351° North 271 312 7,400 -1,250 Descending Philadelphia TRACON
Thu 10:38:59 PM 39.7667 -74.9167 360° North 261 300 6,200 -750 Descending Philadelphia TRACON
Thu 10:39:59 PM 39.8333 -74.9333 349° North 210 242 5,900 -900 Descending Philadelphia TRACON
Thu 10:40:59 PM 39.8833 -74.9333 360° North 200 230 4,400 -1,400 Descending Philadelphia TRACON
Thu 10:41:59 PM 39.9167 -74.9833 311° West 170 196 3,100 -800 Descending Philadelphia TRACON
Thu 10:42:59 PM 39.9167 -75.0500 270° West 170 196 2,800 -619 Descending Philadelphia TRACON
Thu 10:44:05 PM 39.9000 -75.1167 252° West 160 184 1,800 -842 Descending Philadelphia TRACON
Thu 10:44:53 PM 39.8833 -75.1500 237° Southwest 137 158 1,200 -722 Descending Philadelphia TRACON
Thu 10:45:53 PM 39.8833 -75.2000 270° West 127 146 500 -700 Descending Philadelphia TRACON
Thu 10:47:00 PM 39.8667 -75.2333 270° West  Level FlightAware Approximate
Thu 10:54:00 PM 39.8722 -75.2409 270° West  Level Estimated

Login

Don't have an account? Register now (free) for customized features, flight alerts, and more!